createdAt,value
2022-08-09T00:02:49.994Z,97693.22
2022-08-09T00:06:48.782Z,97699.38
2022-08-09T00:10:45.794Z,97684.81
2022-08-09T00:14:45.349Z,97678.31
2022-08-09T00:18:45.065Z,97693.88
2022-08-09T00:22:42.411Z,97702.47
2022-08-09T00:26:42.021Z,97696.97
2022-08-09T00:30:39.033Z,97663.41
2022-08-09T00:34:37.747Z,97705.38
2022-08-09T00:38:35.508Z,97696.53
2022-08-09T00:44:10.922Z,97690.25
2022-08-09T00:46:57.500Z,97694.25
2022-08-09T00:51:05.160Z,97703.34
2022-08-09T00:55:16.741Z,97709.72
2022-08-09T00:59:40.750Z,97706.88
2022-08-09T01:03:51.931Z,97686.53
2022-08-09T01:08:13.716Z,97711.47
2022-08-09T01:12:38.598Z,97731.66
2022-08-09T01:16:46.978Z,97726.91
2022-08-09T01:21:20.939Z,97730.16
2022-08-09T01:26:01.093Z,97727.84
2022-08-09T01:30:06.861Z,97729.59
2022-08-09T01:34:10.715Z,97725.69
2022-08-09T01:38:15.829Z,97726.97
2022-08-09T01:42:13.867Z,97723.44
2022-08-09T01:46:23.845Z,97728.31
2022-08-09T01:50:36.605Z,97739.69
2022-08-09T01:54:40.698Z,97737.47
2022-08-09T01:58:40.239Z,97732.13
2022-08-09T02:02:43.953Z,97741.53
2022-08-09T02:07:03.176Z,97730.31
2022-08-09T02:11:16.976Z,97741.09
2022-08-09T02:15:19.583Z,97725.44
2022-08-09T02:19:20.776Z,97748.59
2022-08-09T02:23:39.874Z,97731.44
2022-08-09T02:28:00.660Z,97743.84
2022-08-09T02:32:04.677Z,97748.66
2022-08-09T02:36:08.027Z,97748.31
2022-08-09T02:40:13.121Z,97732.09
2022-08-09T02:44:29.578Z,97750.75
2022-08-09T02:48:31.709Z,97755.72
2022-08-09T02:52:37.521Z,97712.69
2022-08-09T02:56:37.990Z,97756.88
2022-08-09T03:00:57.598Z,97754.91
2022-08-09T03:04:58.937Z,97759.31
2022-08-09T03:09:00.331Z,97748.06
2022-08-09T03:13:00.413Z,97735.53
2022-08-09T03:17:01.834Z,97761.16
2022-08-09T03:21:02.974Z,97734.00
2022-08-09T03:25:06.210Z,97756.38
2022-08-09T03:29:22.985Z,97756.19
2022-08-09T03:33:21.837Z,97764.19
2022-08-09T03:37:56.662Z,97767.75
2022-08-09T03:41:45.772Z,97776.31
2022-08-09T03:46:05.423Z,97759.31
2022-08-09T03:50:06.841Z,97771.44
2022-08-09T03:54:06.262Z,97766.94
2022-08-09T03:58:14.862Z,97757.91
2022-08-09T04:02:14.236Z,97773.09
2022-08-09T04:06:11.852Z,97773.97
2022-08-09T04:10:09.301Z,97779.56
2022-08-09T04:14:53.002Z,97783.63
2022-08-09T04:18:24.911Z,97755.97
2022-08-09T04:22:22.269Z,97791.81
2022-08-09T04:26:19.277Z,97779.00
2022-08-09T04:30:23.363Z,97769.03
2022-08-09T04:34:30.481Z,97756.81
2022-08-09T04:38:28.728Z,97788.88
2022-08-09T04:42:29.773Z,97788.41
2022-08-09T04:46:56.814Z,97801.84
2022-08-09T04:50:45.067Z,97782.72
2022-08-09T04:54:43.584Z,97785.63
2022-08-09T04:58:41.004Z,97810.69
2022-08-09T05:02:38.967Z,97813.16
2022-08-09T05:06:37.455Z,97812.56
2022-08-09T05:10:36.647Z,97817.91
2022-08-09T05:14:35.190Z,97829.97
2022-08-09T05:18:42.044Z,97819.94
2022-08-09T05:23:57.910Z,97816.41
2022-08-09T05:27:09.888Z,97809.91
2022-08-09T05:31:10.574Z,97815.06
2022-08-09T05:35:08.269Z,97842.88
2022-08-09T05:39:06.187Z,97832.41
2022-08-09T05:43:07.672Z,97831.09
2022-08-09T05:47:06.392Z,97842.44
2022-08-09T05:51:16.944Z,97838.22
2022-08-09T05:55:21.840Z,97843.41
2022-08-09T05:59:22.045Z,97823.53
2022-08-09T06:03:19.936Z,97817.09
2022-08-09T06:07:21.294Z,97829.44
2022-08-09T06:11:19.059Z,97829.00
2022-08-09T06:15:21.557Z,97842.59
2022-08-09T06:19:19.007Z,97851.34
2022-08-09T06:23:17.987Z,97853.13
2022-08-09T06:27:15.680Z,97828.44
2022-08-09T06:31:12.953Z,97847.44
2022-08-09T06:35:11.187Z,97869.28
2022-08-09T06:39:11.661Z,97862.53
2022-08-09T06:43:10.409Z,97864.84
2022-08-09T06:47:08.512Z,97868.47
2022-08-09T06:51:05.759Z,97869.94
2022-08-09T06:55:10.083Z,97857.81
2022-08-09T07:00:49.734Z,97846.75
2022-08-09T07:03:28.357Z,97863.50
2022-08-09T07:07:58.998Z,97874.34
2022-08-09T07:11:51.992Z,97863.91
2022-08-09T07:16:38.720Z,97854.34
2022-08-09T07:20:09.727Z,97864.41
2022-08-09T07:24:07.277Z,97850.44
2022-08-09T07:28:04.779Z,97855.00
2022-08-09T07:32:03.738Z,97865.03
2022-08-09T07:36:00.762Z,97866.09
2022-08-09T07:39:58.195Z,97874.16
2022-08-09T07:43:56.710Z,97838.59
2022-08-09T07:48:01.678Z,97872.75
2022-08-09T07:52:05.013Z,97854.66
2022-08-09T07:56:27.136Z,97870.66
2022-08-09T08:00:36.117Z,97856.22
2022-08-09T08:04:34.291Z,97856.97
2022-08-09T08:09:02.145Z,97854.88
2022-08-09T08:12:49.445Z,97850.22
2022-08-09T08:17:00.829Z,97854.78
2022-08-09T08:21:03.515Z,97840.44
2022-08-09T08:25:00.509Z,97841.72
2022-08-09T08:28:57.490Z,97861.81
2022-08-09T08:32:54.825Z,97848.03
2022-08-09T08:36:51.834Z,97839.88
2022-08-09T08:40:50.167Z,97851.66
2022-08-09T08:44:57.740Z,97840.41
2022-08-09T08:48:56.021Z,97848.63
2022-08-09T08:52:59.485Z,97826.66
2022-08-09T08:56:58.606Z,97850.97
2022-08-09T09:00:58.261Z,97831.19
2022-08-09T09:04:59.347Z,97838.19
2022-08-09T09:09:06.812Z,97839.69
2022-08-09T09:13:19.456Z,97841.25
2022-08-09T09:17:21.134Z,97838.84
2022-08-09T09:21:26.043Z,97822.47
2022-08-09T09:26:00.868Z,97829.69
2022-08-09T09:30:26.230Z,97836.47
2022-08-09T09:34:29.945Z,97825.94
2022-08-09T09:38:56.923Z,97813.09
2022-08-09T09:42:57.897Z,97822.38
2022-08-09T09:47:16.435Z,97827.97
2022-08-09T09:51:26.213Z,97813.28
2022-08-09T09:56:05.253Z,97814.66
2022-08-09T10:00:03.378Z,97821.75
2022-08-09T10:04:16.265Z,97799.50
2022-08-09T10:08:28.468Z,97803.13
2022-08-09T10:12:51.782Z,97803.59
2022-08-09T10:16:57.813Z,97801.88
2022-08-09T10:21:11.083Z,97781.97
2022-08-09T10:25:12.293Z,97779.59
2022-08-09T10:29:37.557Z,97794.34
2022-08-09T10:34:11.161Z,97796.19
2022-08-09T10:37:49.181Z,97772.69
2022-08-09T10:41:49.583Z,97778.16
2022-08-09T10:45:58.499Z,97777.66
2022-08-09T10:50:21.089Z,97774.44
2022-08-09T10:54:28.181Z,97777.84
2022-08-09T10:58:35.340Z,97785.53
2022-08-09T11:03:15.364Z,97771.44
2022-08-09T11:07:01.534Z,97770.38
2022-08-09T11:11:08.797Z,97755.66
2022-08-09T11:15:33.839Z,97772.91
2022-08-09T11:20:11.775Z,97764.78
2022-08-09T11:24:19.599Z,97764.03
2022-08-09T11:28:56.284Z,97746.19
2022-08-09T11:33:03.295Z,97761.50
2022-08-09T11:37:02.589Z,97763.03
2022-08-09T11:41:14.248Z,97765.34
2022-08-09T11:45:42.785Z,97762.56
2022-08-09T11:50:56.658Z,97733.88
2022-08-09T11:54:27.500Z,97715.38
2022-08-09T11:58:33.631Z,97766.28
2022-08-09T12:02:37.069Z,97742.84
2022-08-09T12:06:36.303Z,97748.31
2022-08-09T12:10:40.037Z,97742.25
2022-08-09T12:14:58.920Z,97738.31
2022-08-09T12:18:56.236Z,97716.16
2022-08-09T12:23:01.255Z,97705.34
2022-08-09T12:29:13.894Z,97724.38
2022-08-09T12:31:58.202Z,97726.16
2022-08-09T12:35:40.805Z,97726.78
2022-08-09T12:39:40.160Z,97730.84
2022-08-09T12:44:05.529Z,97705.53
2022-08-09T12:47:56.263Z,97727.72
2022-08-09T12:52:01.058Z,97722.19
2022-08-09T12:56:40.009Z,97723.19
2022-08-09T13:00:43.976Z,97712.22
2022-08-09T13:05:02.636Z,97713.88
2022-08-09T13:09:06.135Z,97707.13
2022-08-09T13:13:11.280Z,97706.53
2022-08-09T13:17:21.919Z,97701.78
2022-08-09T13:22:36.525Z,97683.59
2022-08-09T13:25:54.598Z,97694.91
2022-08-09T13:30:51.141Z,97685.16
2022-08-09T13:34:30.386Z,97696.47
2022-08-09T13:38:54.189Z,97672.13
2022-08-09T13:42:47.410Z,97687.38
2022-08-09T13:47:29.520Z,97681.50
2022-08-09T13:51:03.681Z,97683.75
2022-08-09T13:55:05.121Z,97681.28
2022-08-09T13:59:04.472Z,97682.06
2022-08-09T14:03:03.664Z,97670.97
2022-08-09T14:07:13.715Z,97683.00
2022-08-09T14:11:16.087Z,97684.75
2022-08-09T14:15:13.493Z,97681.41
2022-08-09T14:19:33.563Z,97667.25
2022-08-09T14:23:40.360Z,97680.28
2022-08-09T14:27:58.454Z,97655.47
2022-08-09T14:31:56.394Z,97679.19
2022-08-09T14:35:54.565Z,97664.41
2022-08-09T14:39:51.607Z,97683.63
2022-08-09T14:43:53.730Z,97670.53
2022-08-09T14:47:58.407Z,97677.34
2022-08-09T14:51:58.609Z,97681.16
2022-08-09T14:55:56.218Z,97678.81
2022-08-09T14:59:53.287Z,97666.34
2022-08-09T15:03:50.357Z,97687.41
2022-08-09T15:07:56.014Z,97683.16
2022-08-09T15:11:54.099Z,97666.69
2022-08-09T15:15:51.899Z,97675.19
2022-08-09T15:19:54.538Z,97655.84
2022-08-09T15:24:05.959Z,97668.72
2022-08-09T15:28:27.149Z,97661.47
2022-08-09T15:32:29.813Z,97661.28
2022-08-09T15:36:36.638Z,97651.56
2022-08-09T15:40:33.782Z,97621.88
2022-08-09T15:44:32.687Z,97656.25
2022-08-09T15:48:31.926Z,97658.94
2022-08-09T15:52:29.310Z,97662.31
2022-08-09T15:56:29.335Z,97660.25
2022-08-09T16:00:28.232Z,97671.38
2022-08-09T16:04:25.307Z,97643.75
2022-08-09T16:08:30.803Z,97667.88
2022-08-09T16:12:30.803Z,97661.69
2022-08-09T16:16:31.417Z,97640.75
2022-08-09T16:20:30.551Z,97647.41
2022-08-09T16:24:32.795Z,97645.50
2022-08-09T16:28:31.116Z,97607.16
2022-08-09T16:32:49.542Z,97647.63
2022-08-09T16:36:46.854Z,97637.28
2022-08-09T16:40:44.014Z,97653.72
2022-08-09T16:44:42.959Z,97654.78
2022-08-09T16:48:53.274Z,97633.75
2022-08-09T16:52:52.978Z,97657.94
2022-08-09T16:56:50.819Z,97651.38
2022-08-09T17:00:49.662Z,97663.56
2022-08-09T17:04:47.031Z,97645.78
2022-08-09T17:09:01.715Z,97652.97
2022-08-09T17:13:02.821Z,97662.38
2022-08-09T17:17:26.400Z,97663.44
2022-08-09T17:21:22.179Z,97669.06
2022-08-09T17:25:20.467Z,97662.94
2022-08-09T17:29:21.030Z,97652.81
2022-08-09T17:33:22.308Z,97664.72
2022-08-09T17:37:21.139Z,97686.91
2022-08-09T17:41:18.327Z,97681.97
2022-08-09T17:45:37.367Z,97685.25
2022-08-09T17:49:35.382Z,97690.28
2022-08-09T17:53:32.367Z,97694.69
2022-08-09T17:58:03.713Z,97710.03
2022-08-09T18:02:06.770Z,97702.34
2022-08-09T18:06:22.385Z,97681.44
2022-08-09T18:10:29.443Z,97692.53
2022-08-09T18:14:26.673Z,97694.38
2022-08-09T18:18:26.025Z,97709.44
2022-08-09T18:22:34.006Z,97724.25
2022-08-09T18:26:31.932Z,97725.59
2022-08-09T18:30:42.420Z,97727.41
2022-08-09T18:34:46.134Z,97719.91
2022-08-09T18:38:45.328Z,97690.88
2022-08-09T18:42:44.790Z,97735.00
2022-08-09T18:46:51.472Z,97733.56
2022-08-09T18:51:01.104Z,97733.06
2022-08-09T18:54:58.183Z,97734.78
2022-08-09T18:58:57.175Z,97737.50
2022-08-09T19:02:54.557Z,97744.13
2022-08-09T19:06:55.062Z,97765.56
2022-08-09T19:10:52.051Z,97765.56
2022-08-09T19:14:51.714Z,97761.72
2022-08-09T19:18:49.126Z,97768.59
2022-08-09T19:22:54.203Z,97779.53
2022-08-09T19:26:51.970Z,97764.59
2022-08-09T19:30:48.981Z,97771.66
2022-08-09T19:34:49.718Z,97773.38
2022-08-09T19:38:51.835Z,97756.28
2022-08-09T19:42:49.757Z,97758.28
2022-08-09T19:46:50.857Z,97778.09
2022-08-09T19:50:53.980Z,97784.56
2022-08-09T19:54:51.428Z,97728.66
2022-08-09T19:58:56.496Z,97782.75
2022-08-09T20:04:26.524Z,97796.53
2022-08-09T20:07:22.792Z,97799.75
2022-08-09T20:11:21.465Z,97805.47
2022-08-09T20:16:34.221Z,97806.28
2022-08-09T20:19:48.353Z,97786.94
2022-08-09T20:23:50.806Z,97793.38
2022-08-09T20:27:48.945Z,97773.50
2022-08-09T20:32:16.962Z,97806.38
2022-08-09T20:36:03.343Z,97829.50
2022-08-09T20:40:15.255Z,97809.56
2022-08-09T20:44:15.270Z,97806.59
2022-08-09T20:48:23.343Z,97824.63
2022-08-09T20:52:20.726Z,97792.31
2022-08-09T20:56:22.119Z,97826.78
2022-08-09T21:00:31.357Z,97781.00
2022-08-09T21:05:54.620Z,97826.19
2022-08-09T21:08:52.757Z,97826.69
2022-08-09T21:16:55.088Z,97822.28
2022-08-09T21:20:54.474Z,97822.81
2022-08-09T21:25:11.771Z,97819.00
2022-08-09T21:29:11.645Z,97817.94
2022-08-09T21:33:10.915Z,97804.44
2022-08-09T21:37:17.946Z,97833.75
2022-08-09T21:41:17.106Z,97826.97
2022-08-09T21:45:15.782Z,97845.53
2022-08-09T21:49:14.531Z,97842.53
2022-08-09T21:53:23.894Z,97848.88
2022-08-09T21:57:38.815Z,97869.22
2022-08-09T22:02:00.564Z,97852.03
2022-08-09T22:05:58.721Z,97835.28
2022-08-09T22:09:56.383Z,97849.28
2022-08-09T22:13:53.843Z,97832.94
2022-08-09T22:17:51.198Z,97858.03
2022-08-09T22:21:51.039Z,97839.13
2022-08-09T22:26:12.171Z,97853.59
2022-08-09T22:30:06.019Z,97815.78
2022-08-09T22:34:14.405Z,97859.38
2022-08-09T22:38:11.633Z,97852.28
2022-08-09T22:42:20.965Z,97854.06
2022-08-09T22:48:14.689Z,97846.38
2022-08-09T22:50:36.671Z,97849.19
2022-08-09T22:54:33.902Z,97852.88
2022-08-09T22:58:33.585Z,97872.44
2022-08-09T23:02:31.845Z,97859.91
2022-08-09T23:06:48.852Z,97875.72
2022-08-09T23:10:45.831Z,97847.94
2022-08-09T23:14:44.720Z,97846.84
2022-08-09T23:18:43.167Z,97864.56
2022-08-09T23:22:40.416Z,97863.75
2022-08-09T23:26:39.161Z,97859.06
2022-08-09T23:30:36.175Z,97842.56
2022-08-09T23:34:33.189Z,97855.38
2022-08-09T23:38:31.494Z,97843.41
2022-08-09T23:42:28.580Z,97842.28
2022-08-09T23:46:26.744Z,97819.41
2022-08-09T23:50:23.775Z,97794.47
2022-08-09T23:54:26.488Z,97838.53
2022-08-09T23:58:29.591Z,97845.34
